sensor_id;sensor_type;location;lat;lon;timestamp;P1;durP1;ratioP1;P2;durP2;ratioP2
1993;SDS011;998;49.906;10.908;2022-08-21T00:01:22;7.40;;;5.00;;
1993;SDS011;998;49.906;10.908;2022-08-21T00:03:50;6.50;;;5.17;;
1993;SDS011;998;49.906;10.908;2022-08-21T00:06:17;5.47;;;4.07;;
1993;SDS011;998;49.906;10.908;2022-08-21T00:08:46;6.37;;;3.90;;
1993;SDS011;998;49.906;10.908;2022-08-21T00:11:13;7.17;;;4.37;;
1993;SDS011;998;49.906;10.908;2022-08-21T00:13:40;6.20;;;4.30;;
1993;SDS011;998;49.906;10.908;2022-08-21T00:16:08;6.23;;;4.37;;
1993;SDS011;998;49.906;10.908;2022-08-21T00:18:35;6.13;;;5.20;;
1993;SDS011;998;49.906;10.908;2022-08-21T00:21:03;5.30;;;4.30;;
1993;SDS011;998;49.906;10.908;2022-08-21T00:23:30;5.80;;;3.83;;
1993;SDS011;998;49.906;10.908;2022-08-21T00:26:00;4.50;;;3.10;;
1993;SDS011;998;49.906;10.908;2022-08-21T00:28:27;8.40;;;3.63;;
1993;SDS011;998;49.906;10.908;2022-08-21T00:30:54;6.13;;;4.03;;
1993;SDS011;998;49.906;10.908;2022-08-21T00:33:21;5.30;;;4.23;;
1993;SDS011;998;49.906;10.908;2022-08-21T00:35:49;5.93;;;4.20;;
1993;SDS011;998;49.906;10.908;2022-08-21T00:38:16;4.63;;;3.70;;
1993;SDS011;998;49.906;10.908;2022-08-21T00:40:44;4.70;;;3.40;;
1993;SDS011;998;49.906;10.908;2022-08-21T00:43:15;4.63;;;3.70;;
1993;SDS011;998;49.906;10.908;2022-08-21T00:45:45;5.20;;;4.23;;
1993;SDS011;998;49.906;10.908;2022-08-21T00:48:13;5.50;;;3.90;;
1993;SDS011;998;49.906;10.908;2022-08-21T00:50:42;11.67;;;8.67;;
1993;SDS011;998;49.906;10.908;2022-08-21T00:53:12;9.17;;;6.77;;
1993;SDS011;998;49.906;10.908;2022-08-21T00:55:40;6.23;;;4.63;;
1993;SDS011;998;49.906;10.908;2022-08-21T00:58:08;6.83;;;4.30;;
1993;SDS011;998;49.906;10.908;2022-08-21T01:00:39;4.90;;;4.10;;
1993;SDS011;998;49.906;10.908;2022-08-21T01:03:11;5.30;;;4.10;;
1993;SDS011;998;49.906;10.908;2022-08-21T01:05:39;5.00;;;4.00;;
1993;SDS011;998;49.906;10.908;2022-08-21T01:08:07;5.20;;;3.90;;
1993;SDS011;998;49.906;10.908;2022-08-21T01:10:35;4.70;;;3.43;;
1993;SDS011;998;49.906;10.908;2022-08-21T01:13:02;5.80;;;3.87;;
1993;SDS011;998;49.906;10.908;2022-08-21T01:15:35;5.60;;;4.10;;
1993;SDS011;998;49.906;10.908;2022-08-21T01:18:05;6.60;;;4.20;;
1993;SDS011;998;49.906;10.908;2022-08-21T01:20:34;5.53;;;4.23;;
1993;SDS011;998;49.906;10.908;2022-08-21T01:23:04;6.03;;;3.60;;
1993;SDS011;998;49.906;10.908;2022-08-21T01:25:32;6.20;;;4.07;;
1993;SDS011;998;49.906;10.908;2022-08-21T01:28:02;4.30;;;3.20;;
1993;SDS011;998;49.906;10.908;2022-08-21T01:30:35;7.23;;;3.97;;
1993;SDS011;998;49.906;10.908;2022-08-21T01:33:03;6.27;;;4.17;;
1993;SDS011;998;49.906;10.908;2022-08-21T01:35:30;5.10;;;4.40;;
1993;SDS011;998;49.906;10.908;2022-08-21T01:37:58;4.93;;;3.40;;
1993;SDS011;998;49.906;10.908;2022-08-21T01:40:26;5.60;;;4.27;;
1993;SDS011;998;49.906;10.908;2022-08-21T01:42:53;4.33;;;3.13;;
1993;SDS011;998;49.906;10.908;2022-08-21T01:45:20;6.40;;;4.90;;
1993;SDS011;998;49.906;10.908;2022-08-21T01:47:47;5.23;;;4.00;;
1993;SDS011;998;49.906;10.908;2022-08-21T01:50:15;6.00;;;4.63;;
1993;SDS011;998;49.906;10.908;2022-08-21T01:52:43;6.23;;;4.37;;
1993;SDS011;998;49.906;10.908;2022-08-21T01:55:11;5.13;;;4.23;;
1993;SDS011;998;49.906;10.908;2022-08-21T01:57:40;4.57;;;3.53;;
1993;SDS011;998;49.906;10.908;2022-08-21T02:00:08;6.27;;;4.60;;
1993;SDS011;998;49.906;10.908;2022-08-21T02:02:38;8.70;;;5.23;;
1993;SDS011;998;49.906;10.908;2022-08-21T02:05:05;4.47;;;3.23;;
1993;SDS011;998;49.906;10.908;2022-08-21T02:07:35;5.40;;;4.10;;
1993;SDS011;998;49.906;10.908;2022-08-21T02:10:05;14.07;;;5.40;;
1993;SDS011;998;49.906;10.908;2022-08-21T02:12:33;5.00;;;3.73;;
1993;SDS011;998;49.906;10.908;2022-08-21T02:15:01;6.27;;;4.77;;
1993;SDS011;998;49.906;10.908;2022-08-21T02:17:36;6.17;;;5.00;;
1993;SDS011;998;49.906;10.908;2022-08-21T02:20:04;10.00;;;5.27;;
1993;SDS011;998;49.906;10.908;2022-08-21T02:22:32;7.30;;;4.73;;
1993;SDS011;998;49.906;10.908;2022-08-21T02:24:59;17.73;;;5.30;;
1993;SDS011;998;49.906;10.908;2022-08-21T02:27:26;6.00;;;5.20;;
1993;SDS011;998;49.906;10.908;2022-08-21T02:29:54;8.37;;;5.33;;
1993;SDS011;998;49.906;10.908;2022-08-21T02:32:23;5.83;;;4.67;;
1993;SDS011;998;49.906;10.908;2022-08-21T02:34:51;7.40;;;5.63;;
1993;SDS011;998;49.906;10.908;2022-08-21T02:37:18;6.50;;;4.53;;
1993;SDS011;998;49.906;10.908;2022-08-21T02:39:44;6.13;;;3.77;;
1993;SDS011;998;49.906;10.908;2022-08-21T02:42:11;6.80;;;4.60;;
1993;SDS011;998;49.906;10.908;2022-08-21T02:44:38;7.00;;;5.00;;
1993;SDS011;998;49.906;10.908;2022-08-21T02:47:05;5.30;;;4.57;;
1993;SDS011;998;49.906;10.908;2022-08-21T02:49:33;8.10;;;4.77;;
1993;SDS011;998;49.906;10.908;2022-08-21T02:52:00;6.90;;;5.37;;
1993;SDS011;998;49.906;10.908;2022-08-21T02:54:27;7.23;;;4.57;;
1993;SDS011;998;49.906;10.908;2022-08-21T02:56:54;8.73;;;4.80;;
1993;SDS011;998;49.906;10.908;2022-08-21T02:59:22;6.30;;;4.50;;
1993;SDS011;998;49.906;10.908;2022-08-21T03:01:49;5.30;;;4.20;;
1993;SDS011;998;49.906;10.908;2022-08-21T03:04:16;6.93;;;4.97;;
1993;SDS011;998;49.906;10.908;2022-08-21T03:06:44;6.90;;;4.63;;
1993;SDS011;998;49.906;10.908;2022-08-21T03:09:11;8.33;;;5.20;;
1993;SDS011;998;49.906;10.908;2022-08-21T03:11:38;7.10;;;5.70;;
1993;SDS011;998;49.906;10.908;2022-08-21T03:14:05;6.97;;;5.27;;
1993;SDS011;998;49.906;10.908;2022-08-21T03:16:31;6.83;;;5.20;;
1993;SDS011;998;49.906;10.908;2022-08-21T03:18:58;9.17;;;6.30;;
1993;SDS011;998;49.906;10.908;2022-08-21T03:21:25;9.13;;;6.20;;
1993;SDS011;998;49.906;10.908;2022-08-21T03:23:54;7.67;;;5.97;;
1993;SDS011;998;49.906;10.908;2022-08-21T03:26:20;6.17;;;4.73;;
1993;SDS011;998;49.906;10.908;2022-08-21T03:28:49;8.30;;;6.20;;
1993;SDS011;998;49.906;10.908;2022-08-21T03:31:16;8.53;;;6.73;;
1993;SDS011;998;49.906;10.908;2022-08-21T03:33:43;8.03;;;6.07;;
1993;SDS011;998;49.906;10.908;2022-08-21T03:36:10;8.87;;;6.50;;
1993;SDS011;998;49.906;10.908;2022-08-21T03:38:37;6.93;;;5.30;;
1993;SDS011;998;49.906;10.908;2022-08-21T03:41:05;10.97;;;5.90;;
1993;SDS011;998;49.906;10.908;2022-08-21T03:43:33;7.40;;;5.73;;
1993;SDS011;998;49.906;10.908;2022-08-21T03:46:01;9.60;;;5.97;;
1993;SDS011;998;49.906;10.908;2022-08-21T03:48:29;6.93;;;5.47;;
1993;SDS011;998;49.906;10.908;2022-08-21T03:50:56;7.40;;;6.13;;
1993;SDS011;998;49.906;10.908;2022-08-21T03:53:23;7.37;;;5.30;;
1993;SDS011;998;49.906;10.908;2022-08-21T03:55:50;8.20;;;5.17;;
1993;SDS011;998;49.906;10.908;2022-08-21T03:58:20;6.70;;;5.23;;
1993;SDS011;998;49.906;10.908;2022-08-21T04:00:49;7.10;;;6.07;;
1993;SDS011;998;49.906;10.908;2022-08-21T04:03:17;9.00;;;6.57;;
1993;SDS011;998;49.906;10.908;2022-08-21T04:05:45;7.20;;;5.63;;
1993;SDS011;998;49.906;10.908;2022-08-21T04:08:12;7.40;;;5.80;;
1993;SDS011;998;49.906;10.908;2022-08-21T04:10:40;12.90;;;5.97;;
1993;SDS011;998;49.906;10.908;2022-08-21T04:13:07;7.17;;;6.10;;
1993;SDS011;998;49.906;10.908;2022-08-21T04:15:36;7.30;;;5.33;;
1993;SDS011;998;49.906;10.908;2022-08-21T04:18:03;7.47;;;5.73;;
1993;SDS011;998;49.906;10.908;2022-08-21T04:20:30;9.17;;;6.60;;
1993;SDS011;998;49.906;10.908;2022-08-21T04:22:58;7.80;;;5.90;;
1993;SDS011;998;49.906;10.908;2022-08-21T04:25:24;10.03;;;7.03;;
1993;SDS011;998;49.906;10.908;2022-08-21T04:27:51;9.07;;;6.40;;
1993;SDS011;998;49.906;10.908;2022-08-21T04:30:19;7.80;;;6.20;;
1993;SDS011;998;49.906;10.908;2022-08-21T04:32:48;8.33;;;5.27;;
1993;SDS011;998;49.906;10.908;2022-08-21T04:35:17;9.70;;;6.47;;
1993;SDS011;998;49.906;10.908;2022-08-21T04:37:45;8.57;;;5.83;;
1993;SDS011;998;49.906;10.908;2022-08-21T04:40:13;8.50;;;6.40;;
1993;SDS011;998;49.906;10.908;2022-08-21T04:42:42;7.43;;;5.70;;
1993;SDS011;998;49.906;10.908;2022-08-21T04:45:14;7.33;;;6.00;;
1993;SDS011;998;49.906;10.908;2022-08-21T04:47:44;8.00;;;5.30;;
1993;SDS011;998;49.906;10.908;2022-08-21T04:50:13;11.23;;;7.10;;
1993;SDS011;998;49.906;10.908;2022-08-21T04:52:40;8.03;;;6.20;;
1993;SDS011;998;49.906;10.908;2022-08-21T04:55:07;8.73;;;6.07;;
1993;SDS011;998;49.906;10.908;2022-08-21T04:57:34;7.40;;;5.37;;
1993;SDS011;998;49.906;10.908;2022-08-21T05:00:02;7.07;;;5.63;;
1993;SDS011;998;49.906;10.908;2022-08-21T05:02:31;6.80;;;5.23;;
1993;SDS011;998;49.906;10.908;2022-08-21T05:04:58;7.90;;;6.10;;
1993;SDS011;998;49.906;10.908;2022-08-21T05:07:27;7.93;;;6.00;;
1993;SDS011;998;49.906;10.908;2022-08-21T05:09:55;7.43;;;5.37;;
1993;SDS011;998;49.906;10.908;2022-08-21T05:12:22;9.83;;;6.23;;
1993;SDS011;998;49.906;10.908;2022-08-21T05:14:50;6.90;;;5.30;;
1993;SDS011;998;49.906;10.908;2022-08-21T05:17:17;6.93;;;5.70;;
1993;SDS011;998;49.906;10.908;2022-08-21T05:19:44;8.63;;;5.33;;
1993;SDS011;998;49.906;10.908;2022-08-21T05:22:11;6.13;;;4.27;;
1993;SDS011;998;49.906;10.908;2022-08-21T05:24:46;6.83;;;4.80;;
1993;SDS011;998;49.906;10.908;2022-08-21T05:27:13;8.13;;;5.17;;
1993;SDS011;998;49.906;10.908;2022-08-21T05:29:40;7.23;;;4.00;;
1993;SDS011;998;49.906;10.908;2022-08-21T05:32:08;6.27;;;4.87;;
1993;SDS011;998;49.906;10.908;2022-08-21T05:34:36;8.07;;;5.37;;
1993;SDS011;998;49.906;10.908;2022-08-21T05:37:03;7.40;;;5.07;;
1993;SDS011;998;49.906;10.908;2022-08-21T05:39:30;6.93;;;5.20;;
1993;SDS011;998;49.906;10.908;2022-08-21T05:41:58;5.70;;;4.63;;
1993;SDS011;998;49.906;10.908;2022-08-21T05:44:25;6.90;;;4.83;;
1993;SDS011;998;49.906;10.908;2022-08-21T05:46:52;7.60;;;5.43;;
1993;SDS011;998;49.906;10.908;2022-08-21T05:49:19;6.20;;;5.13;;
1993;SDS011;998;49.906;10.908;2022-08-21T05:51:46;11.63;;;6.10;;
1993;SDS011;998;49.906;10.908;2022-08-21T05:54:12;6.63;;;5.37;;
1993;SDS011;998;49.906;10.908;2022-08-21T05:56:39;6.70;;;5.13;;
1993;SDS011;998;49.906;10.908;2022-08-21T05:59:10;7.80;;;4.70;;
1993;SDS011;998;49.906;10.908;2022-08-21T06:01:38;6.27;;;5.20;;
1993;SDS011;998;49.906;10.908;2022-08-21T06:04:05;6.30;;;5.00;;
1993;SDS011;998;49.906;10.908;2022-08-21T06:06:32;6.03;;;4.60;;
1993;SDS011;998;49.906;10.908;2022-08-21T06:08:59;6.27;;;4.73;;
1993;SDS011;998;49.906;10.908;2022-08-21T06:11:26;6.27;;;4.87;;
1993;SDS011;998;49.906;10.908;2022-08-21T06:13:53;6.90;;;5.33;;
1993;SDS011;998;49.906;10.908;2022-08-21T06:16:21;6.33;;;5.03;;
1993;SDS011;998;49.906;10.908;2022-08-21T06:18:48;6.93;;;5.00;;
1993;SDS011;998;49.906;10.908;2022-08-21T06:21:15;7.57;;;6.57;;
1993;SDS011;998;49.906;10.908;2022-08-21T06:23:43;8.07;;;6.43;;
1993;SDS011;998;49.906;10.908;2022-08-21T06:26:11;8.00;;;6.10;;
1993;SDS011;998;49.906;10.908;2022-08-21T06:28:39;6.50;;;5.37;;
1993;SDS011;998;49.906;10.908;2022-08-21T06:31:10;7.50;;;6.13;;
1993;SDS011;998;49.906;10.908;2022-08-21T06:33:40;6.90;;;5.17;;
1993;SDS011;998;49.906;10.908;2022-08-21T06:36:07;7.37;;;5.53;;
1993;SDS011;998;49.906;10.908;2022-08-21T06:38:34;6.90;;;4.97;;
1993;SDS011;998;49.906;10.908;2022-08-21T06:41:01;6.60;;;5.13;;
1993;SDS011;998;49.906;10.908;2022-08-21T06:43:28;7.00;;;5.50;;
1993;SDS011;998;49.906;10.908;2022-08-21T06:45:56;7.40;;;5.63;;
1993;SDS011;998;49.906;10.908;2022-08-21T06:48:23;7.23;;;5.87;;
1993;SDS011;998;49.906;10.908;2022-08-21T06:50:51;6.37;;;4.90;;
1993;SDS011;998;49.906;10.908;2022-08-21T06:53:19;6.93;;;5.07;;
1993;SDS011;998;49.906;10.908;2022-08-21T06:55:47;7.07;;;5.80;;
1993;SDS011;998;49.906;10.908;2022-08-21T06:58:14;7.60;;;6.23;;
1993;SDS011;998;49.906;10.908;2022-08-21T07:00:42;8.20;;;5.27;;
1993;SDS011;998;49.906;10.908;2022-08-21T07:03:16;6.33;;;4.50;;
1993;SDS011;998;49.906;10.908;2022-08-21T07:05:44;6.93;;;5.50;;
1993;SDS011;998;49.906;10.908;2022-08-21T07:08:12;7.10;;;5.30;;
1993;SDS011;998;49.906;10.908;2022-08-21T07:10:39;6.70;;;5.33;;
1993;SDS011;998;49.906;10.908;2022-08-21T07:13:06;13.17;;;5.60;;
1993;SDS011;998;49.906;10.908;2022-08-21T07:15:33;7.03;;;5.40;;
1993;SDS011;998;49.906;10.908;2022-08-21T07:18:00;8.40;;;5.53;;
1993;SDS011;998;49.906;10.908;2022-08-21T07:20:27;6.63;;;4.57;;
1993;SDS011;998;49.906;10.908;2022-08-21T07:22:56;6.50;;;5.47;;
1993;SDS011;998;49.906;10.908;2022-08-21T07:25:26;6.70;;;5.30;;
1993;SDS011;998;49.906;10.908;2022-08-21T07:27:53;7.20;;;5.70;;
1993;SDS011;998;49.906;10.908;2022-08-21T07:30:21;8.00;;;5.43;;
1993;SDS011;998;49.906;10.908;2022-08-21T07:32:48;7.10;;;5.80;;
1993;SDS011;998;49.906;10.908;2022-08-21T07:35:16;7.13;;;5.90;;
1993;SDS011;998;49.906;10.908;2022-08-21T07:37:43;6.43;;;4.87;;
1993;SDS011;998;49.906;10.908;2022-08-21T07:40:10;8.20;;;6.30;;
1993;SDS011;998;49.906;10.908;2022-08-21T07:42:41;7.90;;;6.03;;
1993;SDS011;998;49.906;10.908;2022-08-21T07:45:08;6.90;;;5.80;;
1993;SDS011;998;49.906;10.908;2022-08-21T07:47:37;7.77;;;5.80;;
1993;SDS011;998;49.906;10.908;2022-08-21T07:50:04;7.40;;;5.77;;
1993;SDS011;998;49.906;10.908;2022-08-21T07:52:32;6.23;;;5.10;;
1993;SDS011;998;49.906;10.908;2022-08-21T07:54:59;8.53;;;7.37;;
1993;SDS011;998;49.906;10.908;2022-08-21T07:57:26;9.30;;;6.70;;
1993;SDS011;998;49.906;10.908;2022-08-21T07:59:55;8.50;;;6.50;;
1993;SDS011;998;49.906;10.908;2022-08-21T08:02:23;8.03;;;6.30;;
1993;SDS011;998;49.906;10.908;2022-08-21T08:04:50;7.97;;;6.53;;
1993;SDS011;998;49.906;10.908;2022-08-21T08:07:17;7.20;;;6.00;;
1993;SDS011;998;49.906;10.908;2022-08-21T08:09:44;8.13;;;6.83;;
1993;SDS011;998;49.906;10.908;2022-08-21T08:12:12;8.40;;;6.50;;
1993;SDS011;998;49.906;10.908;2022-08-21T08:14:39;9.00;;;7.10;;
1993;SDS011;998;49.906;10.908;2022-08-21T08:17:07;9.70;;;7.77;;
1993;SDS011;998;49.906;10.908;2022-08-21T08:19:34;9.80;;;6.70;;
1993;SDS011;998;49.906;10.908;2022-08-21T08:22:01;9.10;;;7.13;;
1993;SDS011;998;49.906;10.908;2022-08-21T08:24:27;7.70;;;5.90;;
1993;SDS011;998;49.906;10.908;2022-08-21T08:26:55;9.53;;;8.40;;
1993;SDS011;998;49.906;10.908;2022-08-21T08:29:22;9.23;;;7.80;;
1993;SDS011;998;49.906;10.908;2022-08-21T08:31:50;7.90;;;6.70;;
1993;SDS011;998;49.906;10.908;2022-08-21T08:34:21;7.80;;;6.77;;
1993;SDS011;998;49.906;10.908;2022-08-21T08:36:48;7.20;;;5.80;;
1993;SDS011;998;49.906;10.908;2022-08-21T08:39:15;7.90;;;6.50;;
1993;SDS011;998;49.906;10.908;2022-08-21T08:41:42;6.80;;;6.07;;
1993;SDS011;998;49.906;10.908;2022-08-21T08:44:11;8.53;;;7.63;;
1993;SDS011;998;49.906;10.908;2022-08-21T08:46:40;8.20;;;7.10;;
1993;SDS011;998;49.906;10.908;2022-08-21T08:49:11;7.43;;;6.20;;
1993;SDS011;998;49.906;10.908;2022-08-21T08:51:48;11.00;;;8.37;;
1993;SDS011;998;49.906;10.908;2022-08-21T08:54:21;7.97;;;7.17;;
1993;SDS011;998;49.906;10.908;2022-08-21T08:56:56;10.97;;;8.40;;
1993;SDS011;998;49.906;10.908;2022-08-21T08:59:25;8.13;;;6.73;;
1993;SDS011;998;49.906;10.908;2022-08-21T09:01:58;8.63;;;7.63;;
1993;SDS011;998;49.906;10.908;2022-08-21T09:04:26;10.20;;;8.30;;
1993;SDS011;998;49.906;10.908;2022-08-21T09:07:01;9.67;;;7.13;;
1993;SDS011;998;49.906;10.908;2022-08-21T09:09:40;10.47;;;8.47;;
1993;SDS011;998;49.906;10.908;2022-08-21T09:12:19;9.90;;;8.90;;
1993;SDS011;998;49.906;10.908;2022-08-21T09:14:58;10.27;;;8.30;;
1993;SDS011;998;49.906;10.908;2022-08-21T09:17:39;7.70;;;6.60;;
1993;SDS011;998;49.906;10.908;2022-08-21T09:20:22;8.60;;;7.27;;
1993;SDS011;998;49.906;10.908;2022-08-21T09:23:00;10.10;;;7.73;;
1993;SDS011;998;49.906;10.908;2022-08-21T09:25:38;12.00;;;9.67;;
1993;SDS011;998;49.906;10.908;2022-08-21T09:28:12;14.97;;;9.90;;
1993;SDS011;998;49.906;10.908;2022-08-21T09:30:40;10.73;;;9.63;;
1993;SDS011;998;49.906;10.908;2022-08-21T09:33:07;11.17;;;8.10;;
1993;SDS011;998;49.906;10.908;2022-08-21T09:35:47;12.07;;;10.07;;
1993;SDS011;998;49.906;10.908;2022-08-21T09:38:24;11.33;;;9.77;;
1993;SDS011;998;49.906;10.908;2022-08-21T09:40:56;10.73;;;9.63;;
1993;SDS011;998;49.906;10.908;2022-08-21T09:43:25;12.30;;;10.47;;
1993;SDS011;998;49.906;10.908;2022-08-21T09:46:01;13.53;;;11.50;;
1993;SDS011;998;49.906;10.908;2022-08-21T09:48:38;12.43;;;10.83;;
1993;SDS011;998;49.906;10.908;2022-08-21T09:51:07;12.97;;;10.27;;
1993;SDS011;998;49.906;10.908;2022-08-21T09:53:42;13.90;;;11.73;;
1993;SDS011;998;49.906;10.908;2022-08-21T09:56:25;12.10;;;10.80;;
1993;SDS011;998;49.906;10.908;2022-08-21T09:59:13;11.50;;;10.30;;
1993;SDS011;998;49.906;10.908;2022-08-21T10:01:46;13.20;;;10.30;;
1993;SDS011;998;49.906;10.908;2022-08-21T10:04:15;11.83;;;10.10;;
1993;SDS011;998;49.906;10.908;2022-08-21T10:06:46;13.43;;;12.07;;
1993;SDS011;998;49.906;10.908;2022-08-21T10:09:17;11.77;;;9.17;;
1993;SDS011;998;49.906;10.908;2022-08-21T10:11:48;12.80;;;10.40;;
1993;SDS011;998;49.906;10.908;2022-08-21T10:14:30;12.47;;;10.50;;
1993;SDS011;998;49.906;10.908;2022-08-21T10:17:07;11.43;;;8.17;;
1993;SDS011;998;49.906;10.908;2022-08-21T10:19:46;9.73;;;8.73;;
1993;SDS011;998;49.906;10.908;2022-08-21T10:22:24;9.80;;;8.67;;
1993;SDS011;998;49.906;10.908;2022-08-21T10:25:11;8.83;;;7.50;;
1993;SDS011;998;49.906;10.908;2022-08-21T10:27:47;12.30;;;10.20;;
1993;SDS011;998;49.906;10.908;2022-08-21T10:30:39;9.87;;;8.50;;
1993;SDS011;998;49.906;10.908;2022-08-21T10:33:17;8.93;;;7.63;;
1993;SDS011;998;49.906;10.908;2022-08-21T10:35:55;9.67;;;7.20;;
1993;SDS011;998;49.906;10.908;2022-08-21T10:38:41;9.23;;;8.27;;
1993;SDS011;998;49.906;10.908;2022-08-21T10:41:22;8.60;;;7.30;;
1993;SDS011;998;49.906;10.908;2022-08-21T10:44:00;8.47;;;6.63;;
1993;SDS011;998;49.906;10.908;2022-08-21T10:46:37;7.70;;;6.43;;
1993;SDS011;998;49.906;10.908;2022-08-21T10:49:16;7.60;;;6.57;;
1993;SDS011;998;49.906;10.908;2022-08-21T10:51:50;12.13;;;6.90;;
1993;SDS011;998;49.906;10.908;2022-08-21T10:54:29;7.43;;;6.63;;
1993;SDS011;998;49.906;10.908;2022-08-21T10:57:08;7.67;;;6.47;;
1993;SDS011;998;49.906;10.908;2022-08-21T10:59:41;7.40;;;6.60;;
1993;SDS011;998;49.906;10.908;2022-08-21T11:02:18;7.93;;;6.97;;
1993;SDS011;998;49.906;10.908;2022-08-21T11:04:53;6.30;;;5.10;;
1993;SDS011;998;49.906;10.908;2022-08-21T11:07:26;6.47;;;5.70;;
1993;SDS011;998;49.906;10.908;2022-08-21T11:09:57;5.83;;;5.07;;
1993;SDS011;998;49.906;10.908;2022-08-21T11:12:39;6.73;;;4.67;;
1993;SDS011;998;49.906;10.908;2022-08-21T11:15:11;5.57;;;5.00;;
1993;SDS011;998;49.906;10.908;2022-08-21T11:17:50;9.53;;;7.00;;
1993;SDS011;998;49.906;10.908;2022-08-21T11:20:26;9.63;;;6.40;;
1993;SDS011;998;49.906;10.908;2022-08-21T11:22:58;5.80;;;4.97;;
1993;SDS011;998;49.906;10.908;2022-08-21T11:25:33;9.83;;;6.13;;
1993;SDS011;998;49.906;10.908;2022-08-21T11:28:06;5.30;;;4.30;;
1993;SDS011;998;49.906;10.908;2022-08-21T11:30:39;6.80;;;4.90;;
1993;SDS011;998;49.906;10.908;2022-08-21T11:33:16;5.50;;;3.67;;
1993;SDS011;998;49.906;10.908;2022-08-21T11:35:53;6.00;;;4.03;;
1993;SDS011;998;49.906;10.908;2022-08-21T11:38:32;6.10;;;4.60;;
1993;SDS011;998;49.906;10.908;2022-08-21T11:41:06;5.07;;;4.20;;
1993;SDS011;998;49.906;10.908;2022-08-21T11:43:45;5.10;;;4.33;;
1993;SDS011;998;49.906;10.908;2022-08-21T11:46:19;6.00;;;4.37;;
1993;SDS011;998;49.906;10.908;2022-08-21T11:48:55;5.43;;;4.40;;
1993;SDS011;998;49.906;10.908;2022-08-21T11:51:33;5.47;;;4.30;;
1993;SDS011;998;49.906;10.908;2022-08-21T11:54:05;5.33;;;4.30;;
1993;SDS011;998;49.906;10.908;2022-08-21T11:56:43;5.20;;;4.40;;
1993;SDS011;998;49.906;10.908;2022-08-21T11:59:17;5.70;;;4.63;;
1993;SDS011;998;49.906;10.908;2022-08-21T12:01:50;6.77;;;4.30;;
1993;SDS011;998;49.906;10.908;2022-08-21T12:04:22;6.23;;;4.07;;
1993;SDS011;998;49.906;10.908;2022-08-21T12:06:55;4.53;;;4.10;;
1993;SDS011;998;49.906;10.908;2022-08-21T12:09:32;6.53;;;4.33;;
1993;SDS011;998;49.906;10.908;2022-08-21T12:12:03;4.70;;;3.30;;
1993;SDS011;998;49.906;10.908;2022-08-21T12:14:37;5.30;;;3.80;;
1993;SDS011;998;49.906;10.908;2022-08-21T12:17:08;10.40;;;7.03;;
1993;SDS011;998;49.906;10.908;2022-08-21T12:19:43;16.90;;;11.93;;
1993;SDS011;998;49.906;10.908;2022-08-21T12:22:11;7.57;;;5.77;;
1993;SDS011;998;49.906;10.908;2022-08-21T12:24:42;4.93;;;3.40;;
1993;SDS011;998;49.906;10.908;2022-08-21T12:27:22;5.10;;;3.10;;
1993;SDS011;998;49.906;10.908;2022-08-21T12:29:58;7.27;;;3.70;;
1993;SDS011;998;49.906;10.908;2022-08-21T12:32:27;4.00;;;3.13;;
1993;SDS011;998;49.906;10.908;2022-08-21T12:35:02;4.00;;;2.90;;
1993;SDS011;998;49.906;10.908;2022-08-21T12:37:38;4.40;;;3.10;;
1993;SDS011;998;49.906;10.908;2022-08-21T12:40:10;4.50;;;3.10;;
1993;SDS011;998;49.906;10.908;2022-08-21T12:42:45;4.80;;;3.47;;
1993;SDS011;998;49.906;10.908;2022-08-21T12:45:19;3.90;;;2.93;;
1993;SDS011;998;49.906;10.908;2022-08-21T12:47:51;3.90;;;2.93;;
1993;SDS011;998;49.906;10.908;2022-08-21T12:50:24;4.73;;;3.37;;
1993;SDS011;998;49.906;10.908;2022-08-21T12:52:58;4.33;;;2.93;;
1993;SDS011;998;49.906;10.908;2022-08-21T12:55:32;4.70;;;3.17;;
1993;SDS011;998;49.906;10.908;2022-08-21T12:58:00;6.00;;;3.43;;
1993;SDS011;998;49.906;10.908;2022-08-21T13:00:29;4.13;;;3.00;;
1993;SDS011;998;49.906;10.908;2022-08-21T13:02:56;5.07;;;4.07;;
1993;SDS011;998;49.906;10.908;2022-08-21T13:05:27;4.43;;;3.40;;
1993;SDS011;998;49.906;10.908;2022-08-21T13:07:57;5.10;;;3.80;;
1993;SDS011;998;49.906;10.908;2022-08-21T13:10:25;4.67;;;3.67;;
1993;SDS011;998;49.906;10.908;2022-08-21T13:12:54;5.50;;;3.23;;
1993;SDS011;998;49.906;10.908;2022-08-21T13:15:25;4.93;;;3.00;;
1993;SDS011;998;49.906;10.908;2022-08-21T13:17:56;3.97;;;3.10;;
1993;SDS011;998;49.906;10.908;2022-08-21T13:20:28;3.70;;;2.63;;
1993;SDS011;998;49.906;10.908;2022-08-21T13:22:56;5.50;;;3.40;;
1993;SDS011;998;49.906;10.908;2022-08-21T13:25:26;3.20;;;2.30;;
1993;SDS011;998;49.906;10.908;2022-08-21T13:27:57;3.80;;;2.90;;
1993;SDS011;998;49.906;10.908;2022-08-21T13:30:26;3.97;;;2.80;;
1993;SDS011;998;49.906;10.908;2022-08-21T13:32:55;3.50;;;2.90;;
1993;SDS011;998;49.906;10.908;2022-08-21T13:35:26;3.37;;;2.70;;
1993;SDS011;998;49.906;10.908;2022-08-21T13:37:56;4.77;;;2.73;;
1993;SDS011;998;49.906;10.908;2022-08-21T13:40:26;4.80;;;2.57;;
1993;SDS011;998;49.906;10.908;2022-08-21T13:42:54;4.07;;;3.03;;
1993;SDS011;998;49.906;10.908;2022-08-21T13:45:23;5.33;;;2.73;;
1993;SDS011;998;49.906;10.908;2022-08-21T13:47:51;3.63;;;2.50;;
1993;SDS011;998;49.906;10.908;2022-08-21T13:50:21;3.50;;;2.53;;
1993;SDS011;998;49.906;10.908;2022-08-21T13:52:55;4.20;;;2.53;;
1993;SDS011;998;49.906;10.908;2022-08-21T13:55:24;4.13;;;2.83;;
1993;SDS011;998;49.906;10.908;2022-08-21T13:58:01;3.83;;;2.57;;
1993;SDS011;998;49.906;10.908;2022-08-21T14:00:44;3.47;;;2.37;;
1993;SDS011;998;49.906;10.908;2022-08-21T14:03:25;4.07;;;2.70;;
1993;SDS011;998;49.906;10.908;2022-08-21T14:06:16;4.13;;;2.40;;
1993;SDS011;998;49.906;10.908;2022-08-21T14:08:47;3.30;;;2.47;;
1993;SDS011;998;49.906;10.908;2022-08-21T14:11:20;4.40;;;2.63;;
1993;SDS011;998;49.906;10.908;2022-08-21T14:13:48;3.73;;;3.00;;
1993;SDS011;998;49.906;10.908;2022-08-21T14:16:26;3.40;;;2.60;;
1993;SDS011;998;49.906;10.908;2022-08-21T14:19:12;4.43;;;2.73;;
1993;SDS011;998;49.906;10.908;2022-08-21T14:21:47;3.27;;;2.23;;
1993;SDS011;998;49.906;10.908;2022-08-21T14:24:24;2.90;;;2.03;;
1993;SDS011;998;49.906;10.908;2022-08-21T14:26:53;4.37;;;2.47;;
1993;SDS011;998;49.906;10.908;2022-08-21T14:32:54;3.47;;;2.37;;
1993;SDS011;998;49.906;10.908;2022-08-21T14:35:24;3.50;;;2.60;;
1993;SDS011;998;49.906;10.908;2022-08-21T14:37:53;4.77;;;2.70;;
1993;SDS011;998;49.906;10.908;2022-08-21T14:40:21;4.03;;;2.80;;
1993;SDS011;998;49.906;10.908;2022-08-21T14:42:49;4.33;;;2.60;;
1993;SDS011;998;49.906;10.908;2022-08-21T14:45:18;4.43;;;2.90;;
1993;SDS011;998;49.906;10.908;2022-08-21T14:47:49;4.37;;;3.00;;
1993;SDS011;998;49.906;10.908;2022-08-21T14:50:16;3.63;;;2.33;;
1993;SDS011;998;49.906;10.908;2022-08-21T14:55:46;3.50;;;2.43;;
1993;SDS011;998;49.906;10.908;2022-08-21T14:58:46;5.70;;;2.50;;
1993;SDS011;998;49.906;10.908;2022-08-21T15:01:16;3.50;;;2.43;;
1993;SDS011;998;49.906;10.908;2022-08-21T15:03:47;4.87;;;2.30;;
1993;SDS011;998;49.906;10.908;2022-08-21T15:06:34;4.60;;;2.90;;
1993;SDS011;998;49.906;10.908;2022-08-21T15:09:04;4.13;;;2.50;;
1993;SDS011;998;49.906;10.908;2022-08-21T15:11:32;4.47;;;3.07;;
1993;SDS011;998;49.906;10.908;2022-08-21T15:14:01;3.93;;;2.90;;
1993;SDS011;998;49.906;10.908;2022-08-21T15:16:29;5.43;;;3.07;;
1993;SDS011;998;49.906;10.908;2022-08-21T15:18:57;5.00;;;2.50;;
1993;SDS011;998;49.906;10.908;2022-08-21T15:21:24;4.90;;;2.60;;
1993;SDS011;998;49.906;10.908;2022-08-21T15:23:51;3.53;;;2.30;;
1993;SDS011;998;49.906;10.908;2022-08-21T15:26:20;4.80;;;2.50;;
1993;SDS011;998;49.906;10.908;2022-08-21T15:28:50;6.70;;;2.50;;
1993;SDS011;998;49.906;10.908;2022-08-21T15:31:17;5.37;;;2.63;;
1993;SDS011;998;49.906;10.908;2022-08-21T15:33:44;3.50;;;2.47;;
1993;SDS011;998;49.906;10.908;2022-08-21T15:36:11;3.90;;;2.63;;
1993;SDS011;998;49.906;10.908;2022-08-21T15:38:38;3.83;;;2.80;;